createdAt,value
2017-08-01T00:00:52.970Z,23.15
2017-08-01T00:01:54.785Z,23.17
2017-08-01T00:02:56.619Z,23.17
2017-08-01T00:03:58.486Z,23.23
2017-08-01T00:05:00.362Z,23.31
2017-08-01T00:06:02.257Z,23.28
2017-08-01T00:07:16.425Z,23.28
2017-08-01T00:08:18.297Z,23.17
2017-08-01T00:09:20.194Z,23.17
2017-08-01T00:10:22.070Z,23.12
2017-08-01T00:11:23.901Z,23.22
2017-08-01T00:12:25.714Z,23.02
2017-08-01T00:13:27.606Z,23.05
2017-08-01T00:14:29.483Z,23.05
2017-08-01T00:15:31.346Z,23.00
2017-08-01T00:16:45.492Z,23.09
2017-08-01T00:17:47.359Z,22.86
2017-08-01T00:18:49.238Z,22.86
2017-08-01T00:19:51.135Z,22.77
2017-08-01T00:20:52.971Z,22.73
2017-08-01T00:21:54.808Z,22.58
2017-08-01T00:22:56.717Z,22.36
2017-08-01T00:23:58.600Z,22.35
2017-08-01T00:25:00.470Z,22.35
2017-08-01T00:26:14.614Z,22.21
2017-08-01T00:27:16.491Z,22.15
2017-08-01T00:28:18.379Z,22.18
2017-08-01T00:29:20.257Z,22.18
2017-08-01T00:30:22.069Z,22.03
2017-08-01T00:31:23.875Z,22.14
2017-08-01T00:32:25.746Z,22.15
2017-08-01T00:33:27.620Z,22.31
2017-08-01T00:34:29.478Z,22.36
2017-08-01T00:35:43.622Z,22.52
2017-08-01T00:36:45.492Z,22.51
2017-08-01T00:37:47.368Z,22.43
2017-08-01T00:38:49.266Z,22.46
2017-08-01T00:39:51.097Z,22.39
2017-08-01T00:40:52.907Z,22.35
2017-08-01T00:41:54.781Z,22.42
2017-08-01T00:42:56.650Z,22.57
2017-08-01T00:43:58.518Z,22.55
2017-08-01T00:45:12.665Z,22.68
2017-08-01T00:46:14.534Z,22.67
2017-08-01T00:47:16.405Z,22.67
2017-08-01T00:48:18.278Z,22.65
2017-08-01T00:49:20.108Z,22.72
2017-08-01T00:50:21.920Z,22.75
2017-08-01T00:51:23.789Z,22.68
2017-08-01T00:52:25.661Z,22.75
2017-08-01T00:53:27.559Z,22.77
2017-08-01T00:54:41.727Z,22.62
2017-08-01T00:55:43.620Z,22.55
2017-08-01T00:56:45.494Z,22.70
2017-08-01T00:57:47.388Z,22.72
2017-08-01T00:58:49.204Z,22.70
2017-08-01T00:59:51.042Z,22.65
2017-08-01T01:00:52.937Z,22.57
2017-08-01T01:01:54.830Z,22.62
2017-08-01T01:02:56.701Z,22.57
2017-08-01T01:04:10.898Z,22.65
2017-08-01T01:05:12.841Z,22.64
2017-08-01T01:06:14.746Z,22.72
2017-08-01T01:07:16.840Z,22.64
2017-08-01T01:08:18.676Z,22.60
2017-08-01T01:09:20.511Z,22.55
2017-08-01T01:10:22.401Z,22.54
2017-08-01T01:11:24.274Z,22.55
2017-08-01T01:12:26.161Z,22.55
2017-08-01T01:13:40.311Z,22.58
2017-08-01T01:14:42.208Z,22.55
2017-08-01T01:15:44.083Z,22.46
2017-08-01T01:16:45.979Z,22.45
2017-08-01T01:17:47.816Z,22.51
2017-08-01T01:18:49.652Z,22.47
2017-08-01T01:19:51.545Z,22.49
2017-08-01T01:20:53.441Z,22.49
2017-08-01T01:21:55.309Z,22.33
2017-08-01T01:23:09.455Z,22.46
2017-08-01T01:24:11.347Z,22.33
2017-08-01T01:25:13.222Z,22.39
2017-08-01T01:26:15.098Z,22.33
2017-08-01T01:27:16.932Z,22.37
2017-08-01T01:28:18.764Z,22.40
2017-08-01T01:29:20.635Z,22.36
2017-08-01T01:30:22.514Z,22.31
2017-08-01T01:31:24.404Z,22.37
2017-08-01T01:32:38.544Z,22.31
2017-08-01T01:33:40.417Z,22.42
2017-08-01T01:34:42.316Z,22.35
2017-08-01T01:35:44.210Z,22.31
2017-08-01T01:36:46.020Z,22.27
2017-08-01T01:37:47.826Z,22.24
2017-08-01T01:38:49.722Z,22.27
2017-08-01T01:39:51.627Z,22.27
2017-08-01T01:40:53.523Z,22.28
2017-08-01T01:42:07.667Z,22.28
2017-08-01T01:43:09.563Z,22.30
2017-08-01T01:44:11.459Z,22.25
2017-08-01T01:45:13.358Z,22.22
2017-08-01T01:46:15.191Z,22.27
2017-08-01T01:47:17.003Z,22.21
2017-08-01T01:48:18.896Z,22.22
2017-08-01T01:49:20.771Z,22.15
2017-08-01T01:50:22.659Z,22.18
2017-08-01T01:51:36.802Z,22.21
2017-08-01T01:52:38.691Z,22.28
2017-08-01T01:53:40.586Z,22.21
2017-08-01T01:54:42.479Z,22.39
2017-08-01T01:55:44.313Z,22.37
2017-08-01T01:56:46.136Z,22.22
2017-08-01T01:57:48.011Z,22.25
2017-08-01T01:58:49.901Z,22.25
2017-08-01T01:59:51.777Z,22.22
2017-08-01T02:01:05.989Z,22.24
2017-08-01T02:02:07.857Z,22.27
2017-08-01T02:03:09.745Z,22.27
2017-08-01T02:04:11.620Z,22.24
2017-08-01T02:05:13.448Z,22.27
2017-08-01T02:06:15.254Z,22.35
2017-08-01T02:07:17.142Z,22.43
2017-08-01T02:08:19.016Z,22.33
2017-08-01T02:09:20.912Z,22.37
2017-08-01T02:10:35.075Z,22.40
2017-08-01T02:11:36.944Z,22.46
2017-08-01T02:12:38.820Z,22.45
2017-08-01T02:13:40.682Z,22.49
2017-08-01T02:14:42.511Z,22.40
2017-08-01T02:15:44.319Z,22.39
2017-08-01T02:16:46.207Z,22.36
2017-08-01T02:17:48.082Z,22.45
2017-08-01T02:18:49.977Z,22.47
2017-08-01T02:20:04.134Z,22.47
2017-08-01T02:21:06.008Z,22.47
2017-08-01T02:22:07.878Z,22.43
2017-08-01T02:23:09.768Z,22.61
2017-08-01T02:24:11.576Z,22.61
2017-08-01T02:25:13.392Z,22.64
2017-08-01T02:26:15.285Z,22.73
2017-08-01T02:27:17.176Z,22.73
2017-08-01T02:28:19.047Z,22.88
2017-08-01T02:29:33.189Z,23.01
2017-08-01T02:30:35.071Z,23.05
2017-08-01T02:31:36.943Z,23.10
2017-08-01T02:32:38.814Z,23.13
2017-08-01T02:33:40.645Z,23.15
2017-08-01T02:34:42.473Z,23.12
2017-08-01T02:35:44.344Z,23.15
2017-08-01T02:36:46.221Z,23.19
2017-08-01T02:37:48.118Z,23.28
2017-08-01T02:39:02.282Z,23.42
2017-08-01T02:40:04.173Z,23.35
2017-08-01T02:41:06.069Z,23.43
2017-08-01T02:42:07.962Z,23.47
2017-08-01T02:43:09.771Z,23.40
2017-08-01T02:44:11.576Z,23.36
2017-08-01T02:45:13.445Z,23.38
2017-08-01T02:46:15.313Z,23.28
2017-08-01T02:47:17.180Z,23.28
2017-08-01T02:48:31.369Z,23.17
2017-08-01T02:49:33.235Z,23.07
2017-08-01T02:50:35.107Z,23.09
2017-08-01T02:51:36.999Z,23.05
2017-08-01T02:52:38.807Z,23.05
2017-08-01T02:53:40.612Z,22.98
2017-08-01T02:54:42.491Z,23.00
2017-08-01T02:55:44.358Z,23.02
2017-08-01T02:56:46.229Z,23.09
2017-08-01T02:58:00.398Z,23.13
2017-08-01T02:59:02.283Z,23.17
2017-08-01T03:00:04.152Z,23.05
2017-08-01T03:01:06.029Z,23.16
2017-08-01T03:02:07.865Z,23.23
2017-08-01T03:03:09.695Z,23.27
2017-08-01T03:04:11.567Z,23.32
2017-08-01T03:05:13.459Z,23.31
2017-08-01T03:06:15.335Z,23.35
2017-08-01T03:07:29.496Z,23.57
2017-08-01T03:08:31.370Z,23.57
2017-08-01T03:09:33.260Z,23.51
2017-08-01T03:10:35.135Z,23.58
2017-08-01T03:11:36.968Z,23.55
2017-08-01T03:12:38.777Z,23.63
2017-08-01T03:13:40.667Z,23.65
2017-08-01T03:14:42.534Z,23.61
2017-08-01T03:15:44.406Z,23.57
2017-08-01T03:16:58.545Z,23.68
2017-08-01T03:18:00.420Z,23.60
2017-08-01T03:19:02.315Z,23.61
2017-08-01T03:20:04.190Z,23.60
2017-08-01T03:21:06.025Z,23.55
2017-08-01T03:22:07.854Z,23.57
2017-08-01T03:23:09.724Z,23.51
2017-08-01T03:24:11.636Z,23.50
2017-08-01T03:25:13.505Z,23.48
2017-08-01T03:26:27.664Z,23.57
2017-08-01T03:27:29.549Z,23.57
2017-08-01T03:28:31.428Z,23.66
2017-08-01T03:29:33.321Z,23.61
2017-08-01T03:30:35.157Z,23.66
2017-08-01T03:31:36.967Z,23.68
2017-08-01T03:32:38.838Z,23.65
2017-08-01T03:33:40.735Z,23.50
2017-08-01T03:34:42.607Z,23.57
2017-08-01T03:35:56.745Z,23.50
2017-08-01T03:36:58.622Z,23.47
2017-08-01T03:38:00.520Z,23.40
2017-08-01T03:39:02.417Z,23.65
2017-08-01T03:40:04.249Z,23.55
2017-08-01T03:41:06.057Z,23.61
2017-08-01T03:42:07.934Z,23.66
2017-08-01T03:43:09.834Z,23.69
2017-08-01T03:44:11.730Z,23.72
2017-08-01T03:45:25.875Z,23.85
2017-08-01T03:46:27.771Z,23.91
2017-08-01T03:47:29.687Z,24.09
2017-08-01T03:48:31.583Z,24.06
2017-08-01T03:49:33.425Z,24.22
2017-08-01T03:50:35.258Z,24.35
2017-08-01T03:51:37.155Z,24.47
2017-08-01T03:52:39.030Z,24.53
2017-08-01T03:53:40.908Z,24.81
2017-08-01T03:54:55.051Z,24.84
2017-08-01T03:55:56.922Z,25.02
2017-08-01T03:56:58.797Z,25.15
2017-08-01T03:58:00.721Z,25.32
2017-08-01T03:59:02.524Z,25.43
2017-08-01T04:00:04.332Z,25.54
2017-08-01T04:01:06.216Z,25.65
2017-08-01T04:02:08.108Z,25.80
2017-08-01T04:03:10.006Z,25.90
2017-08-01T04:04:24.150Z,26.05
2017-08-01T04:05:26.017Z,26.28
2017-08-01T04:06:27.891Z,26.40
2017-08-01T04:07:29.790Z,26.55
2017-08-01T04:08:31.627Z,26.73
2017-08-01T04:09:33.435Z,26.87
2017-08-01T04:10:35.315Z,26.88
2017-08-01T04:11:37.191Z,27.04
2017-08-01T04:12:39.083Z,27.12
2017-08-01T04:13:53.239Z,27.27
2017-08-01T04:14:55.134Z,27.39
2017-08-01T04:15:57.032Z,27.51
2017-08-01T04:16:58.902Z,27.59
2017-08-01T04:18:00.724Z,27.67
2017-08-01T04:19:02.538Z,27.69
2017-08-01T04:20:04.437Z,27.78
2017-08-01T04:21:06.338Z,27.70
2017-08-01T04:22:08.235Z,27.72
2017-08-01T04:23:22.398Z,27.72
2017-08-01T04:24:24.276Z,27.67
2017-08-01T04:25:26.153Z,27.77
2017-08-01T04:26:28.053Z,27.85
2017-08-01T04:27:29.892Z,27.97
2017-08-01T04:28:31.710Z,28.15
2017-08-01T04:29:33.583Z,28.31
2017-08-01T04:30:35.490Z,28.49
2017-08-01T04:31:37.393Z,28.73
2017-08-01T04:32:51.541Z,28.76
2017-08-01T04:33:53.410Z,28.93
2017-08-01T04:34:55.286Z,29.12
2017-08-01T04:35:57.187Z,29.16
2017-08-01T04:36:59.030Z,29.28
2017-08-01T04:38:00.845Z,29.36
2017-08-01T04:39:02.721Z,29.41
2017-08-01T04:40:04.623Z,29.55
2017-08-01T04:41:06.522Z,29.57
2017-08-01T04:42:20.671Z,29.79
2017-08-01T04:43:22.550Z,29.83
2017-08-01T04:44:24.452Z,30.05
2017-08-01T04:45:26.352Z,30.04
2017-08-01T04:46:28.194Z,30.16
2017-08-01T04:47:30.032Z,30.26
2017-08-01T04:48:31.935Z,30.32
2017-08-01T04:49:33.840Z,30.29
2017-08-01T04:50:35.712Z,30.46
2017-08-01T04:51:49.865Z,30.39
2017-08-01T04:52:51.741Z,30.58
2017-08-01T04:53:53.618Z,30.69
2017-08-01T04:54:55.522Z,30.76
2017-08-01T04:55:57.361Z,30.84
2017-08-01T04:56:59.176Z,31.02
2017-08-01T04:58:01.056Z,31.14
2017-08-01T04:59:02.957Z,31.20
2017-08-01T05:00:04.827Z,31.28
2017-08-01T05:01:18.985Z,31.21
2017-08-01T05:02:20.883Z,31.28
2017-08-01T05:03:22.759Z,31.20
2017-08-01T05:04:24.635Z,31.26
2017-08-01T05:05:26.453Z,31.26
2017-08-01T05:06:28.275Z,31.26
2017-08-01T05:07:30.176Z,31.25
2017-08-01T05:08:32.050Z,31.25
2017-08-01T05:09:33.934Z,31.32
2017-08-01T05:10:48.084Z,30.97
2017-08-01T05:11:49.990Z,30.88
2017-08-01T05:12:51.889Z,30.84
2017-08-01T05:13:53.785Z,30.64
2017-08-01T05:14:55.630Z,30.51
2017-08-01T05:15:57.470Z,30.83
2017-08-01T05:16:59.353Z,31.02
2017-08-01T05:18:01.259Z,31.17
2017-08-01T05:19:03.161Z,31.32
2017-08-01T05:20:17.312Z,31.29
2017-08-01T05:21:19.196Z,31.28
2017-08-01T05:22:21.057Z,31.21
2017-08-01T05:23:22.957Z,30.79
2017-08-01T05:24:24.802Z,30.39
2017-08-01T05:25:26.642Z,30.13
2017-08-01T05:26:28.538Z,30.01
2017-08-01T05:27:30.417Z,29.89
2017-08-01T05:28:32.299Z,29.90
2017-08-01T05:29:46.472Z,29.92
2017-08-01T05:30:48.344Z,30.07
2017-08-01T05:31:50.220Z,30.11
2017-08-01T05:32:52.119Z,30.10
2017-08-01T05:33:53.940Z,30.10
2017-08-01T05:34:55.778Z,30.07
2017-08-01T05:35:57.660Z,30.02
2017-08-01T05:36:59.563Z,30.11
2017-08-01T05:38:01.440Z,30.07
2017-08-01T05:39:15.592Z,29.92
2017-08-01T05:40:17.491Z,29.90
2017-08-01T05:41:19.370Z,29.74
2017-08-01T05:42:21.250Z,29.67
2017-08-01T05:43:23.091Z,29.55
2017-08-01T05:44:24.905Z,29.53
2017-08-01T05:45:26.806Z,29.41
2017-08-01T05:46:28.703Z,29.46
2017-08-01T05:47:30.586Z,29.43
2017-08-01T05:48:44.763Z,29.34
2017-08-01T05:49:46.657Z,29.31
2017-08-01T05:50:48.538Z,29.30
2017-08-01T05:51:50.439Z,29.36
2017-08-01T05:52:52.280Z,29.27
2017-08-01T05:53:54.098Z,29.27
2017-08-01T05:54:55.974Z,29.27
2017-08-01T05:55:57.851Z,29.28
2017-08-01T05:56:59.750Z,29.24
2017-08-01T05:58:13.900Z,29.02
2017-08-01T05:59:15.773Z,28.95
2017-08-01T06:00:17.655Z,28.33
2017-08-01T06:01:19.550Z,27.87
2017-08-01T06:02:21.366Z,27.39
2017-08-01T06:03:23.178Z,26.97
2017-08-01T06:04:25.058Z,26.62
2017-08-01T06:05:26.955Z,26.44
2017-08-01T06:06:28.829Z,26.21
2017-08-01T06:07:42.980Z,26.02
2017-08-01T06:08:44.855Z,26.20
2017-08-01T06:09:46.751Z,26.40
2017-08-01T06:10:48.625Z,26.55
2017-08-01T06:11:50.439Z,26.82
2017-08-01T06:12:52.258Z,26.85
2017-08-01T06:13:54.160Z,26.99
2017-08-01T06:14:56.057Z,26.95
2017-08-01T06:15:57.953Z,26.70
2017-08-01T06:17:12.107Z,26.40
2017-08-01T06:18:13.981Z,26.23
2017-08-01T06:19:15.885Z,26.06
2017-08-01T06:20:17.759Z,25.95
2017-08-01T06:21:19.572Z,25.95
2017-08-01T06:22:21.388Z,25.99
2017-08-01T06:23:23.286Z,26.01
2017-08-01T06:24:25.164Z,26.05
2017-08-01T06:25:27.044Z,25.91
2017-08-01T06:26:41.197Z,25.97
2017-08-01T06:27:43.065Z,25.87
2017-08-01T06:28:44.944Z,25.82
2017-08-01T06:29:46.845Z,25.79
2017-08-01T06:30:48.660Z,25.67
2017-08-01T06:31:50.470Z,25.64
2017-08-01T06:32:52.341Z,25.60
2017-08-01T06:33:54.221Z,25.73
2017-08-01T06:34:56.107Z,25.70
2017-08-01T06:36:10.261Z,25.76
2017-08-01T06:37:12.137Z,25.83
2017-08-01T06:38:14.038Z,25.85
2017-08-01T06:39:15.948Z,25.98
2017-08-01T06:40:17.778Z,26.07
2017-08-01T06:41:19.610Z,26.12
2017-08-01T06:42:21.489Z,26.29
2017-08-01T06:43:23.391Z,26.36
2017-08-01T06:44:25.264Z,26.50
2017-08-01T06:45:39.414Z,26.48
2017-08-01T06:46:41.308Z,26.57
2017-08-01T06:47:43.187Z,26.82
2017-08-01T06:48:45.089Z,26.91
2017-08-01T06:49:46.928Z,27.07
2017-08-01T06:50:48.739Z,27.17
2017-08-01T06:51:50.621Z,27.13
2017-08-01T06:52:52.496Z,27.17
2017-08-01T06:53:54.376Z,27.06
2017-08-01T06:55:08.520Z,26.99
2017-08-01T06:56:10.396Z,26.92
2017-08-01T06:57:12.270Z,27.02
2017-08-01T06:58:14.173Z,27.07
2017-08-01T06:59:16.012Z,27.02
2017-08-01T07:00:17.828Z,27.22
2017-08-01T07:01:19.710Z,27.21
2017-08-01T07:02:21.578Z,27.25
2017-08-01T07:03:23.474Z,27.39
2017-08-01T07:04:37.605Z,27.62
2017-08-01T07:05:39.441Z,27.65
2017-08-01T07:06:41.323Z,27.62
2017-08-01T07:07:43.223Z,27.60
2017-08-01T07:08:45.103Z,27.63
2017-08-01T07:09:46.935Z,27.70
2017-08-01T07:10:48.752Z,27.77
2017-08-01T07:11:50.631Z,27.90
2017-08-01T07:12:52.512Z,28.00
2017-08-01T07:14:06.718Z,27.94
2017-08-01T07:15:08.596Z,27.90
2017-08-01T07:16:10.510Z,27.77
2017-08-01T07:17:12.389Z,27.59
2017-08-01T07:18:14.208Z,27.60
2017-08-01T07:19:16.025Z,27.66
2017-08-01T07:20:17.922Z,27.69
2017-08-01T07:21:19.799Z,27.69
2017-08-01T07:22:21.680Z,27.81
2017-08-01T07:23:35.876Z,27.74
2017-08-01T07:24:37.755Z,27.51
2017-08-01T07:25:39.659Z,27.37
2017-08-01T07:26:41.534Z,27.25
2017-08-01T07:27:43.375Z,27.00
2017-08-01T07:28:45.192Z,26.77
2017-08-01T07:29:47.093Z,26.57
2017-08-01T07:30:48.970Z,26.47
2017-08-01T07:31:50.845Z,26.50
2017-08-01T07:33:05.045Z,26.57
2017-08-01T07:34:06.959Z,26.66
2017-08-01T07:35:08.849Z,26.72
2017-08-01T07:36:10.752Z,26.82
2017-08-01T07:37:12.591Z,26.85
2017-08-01T07:38:14.404Z,26.97
2017-08-01T07:39:16.286Z,26.91
2017-08-01T07:40:18.166Z,26.91
2017-08-01T07:41:20.067Z,27.00
2017-08-01T07:42:34.238Z,27.04
2017-08-01T07:43:36.110Z,27.04
2017-08-01T07:44:37.991Z,27.18
2017-08-01T07:45:39.906Z,27.12
2017-08-01T07:46:41.749Z,27.14
2017-08-01T07:47:43.585Z,26.97
2017-08-01T07:48:45.482Z,26.88
2017-08-01T07:49:47.368Z,26.95
2017-08-01T07:50:49.271Z,27.04
2017-08-01T07:52:03.443Z,27.13
2017-08-01T07:53:05.319Z,27.22
2017-08-01T07:54:07.194Z,27.21
2017-08-01T07:55:09.095Z,27.25
2017-08-01T07:56:10.907Z,27.36
2017-08-01T07:57:12.725Z,27.46
2017-08-01T07:58:14.605Z,27.55
2017-08-01T07:59:16.501Z,27.55
2017-08-01T08:00:18.396Z,27.60
2017-08-01T08:01:32.566Z,27.32
2017-08-01T08:02:34.464Z,27.22
2017-08-01T08:03:36.340Z,27.10
2017-08-01T08:04:38.223Z,26.91
2017-08-01T08:05:40.063Z,26.91
2017-08-01T08:06:41.900Z,26.81
2017-08-01T08:07:43.801Z,26.73
2017-08-01T08:08:45.702Z,26.58
2017-08-01T08:09:47.600Z,26.47
2017-08-01T08:11:01.751Z,26.35
2017-08-01T08:12:03.626Z,26.29
2017-08-01T08:13:05.500Z,26.26
2017-08-01T08:14:07.373Z,26.30
2017-08-01T08:15:09.198Z,26.29
2017-08-01T08:16:11.035Z,26.40
2017-08-01T08:17:12.910Z,26.45
2017-08-01T08:18:14.841Z,26.51
2017-08-01T08:19:16.713Z,26.45
2017-08-01T08:20:30.862Z,26.40
2017-08-01T08:21:32.742Z,26.57
2017-08-01T08:22:34.618Z,26.47
2017-08-01T08:23:36.528Z,26.43
2017-08-01T08:24:38.354Z,26.40
2017-08-01T08:25:40.198Z,26.30
2017-08-01T08:26:42.077Z,26.45
2017-08-01T08:27:43.956Z,26.54
2017-08-01T08:28:45.857Z,26.62
2017-08-01T08:30:00.012Z,26.58
2017-08-01T08:31:01.914Z,26.60
2017-08-01T08:32:03.814Z,26.72
2017-08-01T08:33:05.710Z,26.63
2017-08-01T08:34:07.526Z,26.63
2017-08-01T08:35:09.345Z,26.69
2017-08-01T08:36:11.239Z,26.57
2017-08-01T08:37:13.143Z,26.65
2017-08-01T08:38:15.047Z,26.73
2017-08-01T08:39:29.214Z,26.55
2017-08-01T08:40:31.094Z,26.47
2017-08-01T08:41:32.966Z,26.69
2017-08-01T08:42:34.842Z,26.76
2017-08-01T08:43:36.690Z,26.85
2017-08-01T08:44:38.521Z,26.94
2017-08-01T08:45:40.429Z,27.04
2017-08-01T08:46:42.331Z,27.06
2017-08-01T08:47:44.231Z,27.18
2017-08-01T08:48:58.386Z,27.27
2017-08-01T08:50:00.285Z,27.31
2017-08-01T08:51:02.191Z,27.25
2017-08-01T08:52:04.085Z,27.17
2017-08-01T08:53:05.904Z,27.09
2017-08-01T08:54:07.743Z,27.09
2017-08-01T08:55:09.600Z,27.12
2017-08-01T08:56:11.420Z,27.18
2017-08-01T08:57:13.262Z,27.18
2017-08-01T08:58:27.433Z,27.19
2017-08-01T08:59:29.306Z,27.31
2017-08-01T09:00:31.182Z,27.41
2017-08-01T09:01:33.065Z,27.57
2017-08-01T09:02:34.880Z,27.72
2017-08-01T09:03:36.718Z,27.78
2017-08-01T09:04:38.593Z,27.70
2017-08-01T09:05:40.469Z,27.67
2017-08-01T09:06:42.349Z,27.66
2017-08-01T09:07:56.497Z,27.74
2017-08-01T09:08:58.353Z,27.77
2017-08-01T09:10:00.272Z,27.94
2017-08-01T09:11:02.172Z,28.02
2017-08-01T09:12:04.012Z,28.07
2017-08-01T09:13:05.832Z,27.93
2017-08-01T09:14:07.730Z,27.66
2017-08-01T09:15:09.612Z,27.60
2017-08-01T09:16:11.515Z,27.62
2017-08-01T09:17:25.689Z,27.51
2017-08-01T09:18:27.565Z,27.51
2017-08-01T09:19:29.442Z,27.59
2017-08-01T09:20:31.320Z,27.62
2017-08-01T09:21:33.194Z,27.67
2017-08-01T09:22:34.995Z,27.72
2017-08-01T09:23:36.912Z,27.70
2017-08-01T09:24:38.841Z,27.90
2017-08-01T09:25:40.735Z,28.02
2017-08-01T09:26:54.907Z,28.09
2017-08-01T09:27:56.780Z,28.02
2017-08-01T09:28:58.655Z,28.14
2017-08-01T09:30:00.529Z,28.04
2017-08-01T09:31:02.375Z,28.24
2017-08-01T09:32:04.220Z,28.14
2017-08-01T09:33:06.127Z,28.12
2017-08-01T09:34:08.040Z,28.21
2017-08-01T09:35:09.941Z,28.39
2017-08-01T09:36:24.150Z,28.64
2017-08-01T09:37:26.083Z,28.88
2017-08-01T09:38:28.046Z,29.05
2017-08-01T09:39:30.190Z,29.09
2017-08-01T09:40:32.059Z,29.18
2017-08-01T09:41:33.878Z,29.26
2017-08-01T09:42:35.771Z,29.21
2017-08-01T09:43:37.699Z,29.21
2017-08-01T09:44:39.619Z,29.27
2017-08-01T09:45:53.821Z,29.33
2017-08-01T09:46:55.719Z,29.42
2017-08-01T09:47:57.633Z,29.57
2017-08-01T09:48:59.526Z,29.82
2017-08-01T09:50:01.363Z,30.07
2017-08-01T09:51:03.224Z,30.11
2017-08-01T09:52:05.165Z,30.20
2017-08-01T09:53:07.142Z,30.16
2017-08-01T09:54:09.149Z,30.19
2017-08-01T09:55:23.316Z,30.10
2017-08-01T09:56:25.255Z,30.16
2017-08-01T09:57:27.253Z,30.08
2017-08-01T09:58:29.188Z,30.07
2017-08-01T09:59:31.210Z,30.11
2017-08-01T10:00:33.065Z,30.10
2017-08-01T10:01:34.997Z,30.15
2017-08-01T10:02:36.908Z,30.31
2017-08-01T10:03:38.720Z,30.31
2017-08-01T10:04:52.962Z,30.27
2017-08-01T10:05:54.873Z,30.29
2017-08-01T10:06:56.772Z,30.13
2017-08-01T10:07:58.656Z,29.94
2017-08-01T10:09:00.497Z,29.65
2017-08-01T10:10:02.318Z,29.57
2017-08-01T10:11:04.229Z,29.49
2017-08-01T10:12:06.153Z,29.42
2017-08-01T10:13:08.087Z,29.41
2017-08-01T10:14:22.282Z,29.58
2017-08-01T10:15:24.193Z,29.61
2017-08-01T10:16:26.095Z,29.76
2017-08-01T10:17:28.007Z,29.74
2017-08-01T10:18:29.872Z,29.68
2017-08-01T10:19:31.776Z,29.73
2017-08-01T10:20:33.749Z,29.76
2017-08-01T10:21:35.679Z,29.98
2017-08-01T10:22:37.620Z,30.05
2017-08-01T10:23:51.834Z,30.10
2017-08-01T10:24:53.708Z,30.17
2017-08-01T10:25:55.608Z,30.31
2017-08-01T10:26:57.510Z,30.32
2017-08-01T10:27:59.335Z,30.23
2017-08-01T10:29:01.172Z,30.31
2017-08-01T10:30:03.074Z,30.17
2017-08-01T10:31:04.977Z,30.08
2017-08-01T10:32:06.858Z,30.15
2017-08-01T10:33:21.078Z,29.95
2017-08-01T10:34:22.954Z,29.65
2017-08-01T10:35:24.837Z,29.60
2017-08-01T10:36:26.719Z,29.58
2017-08-01T10:37:28.562Z,29.67
2017-08-01T10:38:30.407Z,29.68
2017-08-01T10:39:32.280Z,29.85
2017-08-01T10:40:34.181Z,29.90
2017-08-01T10:41:36.062Z,30.05
2017-08-01T10:42:50.238Z,30.04
2017-08-01T10:43:52.136Z,30.02
2017-08-01T10:44:54.020Z,29.95
2017-08-01T10:45:55.900Z,29.95
2017-08-01T10:46:57.740Z,29.90
2017-08-01T10:47:59.575Z,29.90
2017-08-01T10:49:01.462Z,29.80
2017-08-01T10:50:03.365Z,29.82
2017-08-01T10:51:05.249Z,29.82
2017-08-01T10:52:19.427Z,29.80
2017-08-01T10:53:21.304Z,29.87
2017-08-01T10:54:23.206Z,29.89
2017-08-01T10:55:25.114Z,29.94
2017-08-01T10:56:26.961Z,29.89
2017-08-01T10:57:28.795Z,30.00
2017-08-01T10:58:30.676Z,30.02
2017-08-01T10:59:32.579Z,30.07
2017-08-01T11:00:34.456Z,30.15
2017-08-01T11:01:48.608Z,30.31
2017-08-01T11:02:50.481Z,30.27
2017-08-01T11:03:52.362Z,30.22
2017-08-01T11:04:54.266Z,30.38
2017-08-01T11:05:56.115Z,30.42
2017-08-01T11:06:57.967Z,30.55
2017-08-01T11:07:59.841Z,30.49
2017-08-01T11:09:01.748Z,30.45
2017-08-01T11:10:03.621Z,30.43
2017-08-01T11:11:17.771Z,30.57
2017-08-01T11:12:19.649Z,30.57
2017-08-01T11:13:21.552Z,30.75
2017-08-01T11:14:23.457Z,30.72
2017-08-01T11:15:25.303Z,30.82
2017-08-01T11:16:27.118Z,30.82
2017-08-01T11:17:28.933Z,30.89
2017-08-01T11:18:30.752Z,30.95
2017-08-01T11:19:32.592Z,30.89
2017-08-01T11:20:46.770Z,31.01
2017-08-01T11:21:48.664Z,31.06
2017-08-01T11:22:50.570Z,31.25
2017-08-01T11:23:52.448Z,31.28
2017-08-01T11:24:54.269Z,31.25
2017-08-01T11:25:56.109Z,31.29
2017-08-01T11:26:58.044Z,31.35
2017-08-01T11:27:59.922Z,31.47
2017-08-01T11:29:01.803Z,31.58
2017-08-01T11:30:15.988Z,31.68
2017-08-01T11:31:17.901Z,31.69
2017-08-01T11:32:19.797Z,31.78
2017-08-01T11:33:21.699Z,31.81
2017-08-01T11:34:23.524Z,31.86
2017-08-01T11:35:25.377Z,32.01
2017-08-01T11:36:27.275Z,32.07
2017-08-01T11:37:29.166Z,32.11
2017-08-01T11:38:31.050Z,32.15
2017-08-01T11:39:45.232Z,32.21
2017-08-01T11:40:47.157Z,32.21
2017-08-01T11:41:49.032Z,32.23
2017-08-01T11:42:50.930Z,32.30
2017-08-01T11:43:52.756Z,32.37
2017-08-01T11:44:54.597Z,32.32
2017-08-01T11:45:56.501Z,32.38
2017-08-01T11:46:58.363Z,32.38
2017-08-01T11:48:00.257Z,32.47
2017-08-01T11:49:14.405Z,32.57
2017-08-01T11:50:16.285Z,32.59
2017-08-01T11:51:18.589Z,32.59
2017-08-01T11:52:20.552Z,32.51
2017-08-01T11:53:22.395Z,32.59
2017-08-01T11:54:24.231Z,32.55
2017-08-01T11:55:26.115Z,32.55
2017-08-01T11:56:28.024Z,32.55
2017-08-01T11:57:29.919Z,32.56
2017-08-01T11:58:44.082Z,32.65
2017-08-01T11:59:45.979Z,32.77
2017-08-01T12:00:47.860Z,32.75
2017-08-01T12:01:49.739Z,32.79
2017-08-01T12:02:51.581Z,32.70
2017-08-01T12:03:53.422Z,32.81
2017-08-01T12:04:55.323Z,32.93
2017-08-01T12:05:57.230Z,32.92
2017-08-01T12:06:59.141Z,32.89
2017-08-01T12:08:13.407Z,32.92
2017-08-01T12:09:15.289Z,33.03
2017-08-01T12:10:17.167Z,33.00
2017-08-01T12:11:19.071Z,32.99
2017-08-01T12:12:20.923Z,33.06
2017-08-01T12:13:22.763Z,33.01
2017-08-01T12:14:24.640Z,33.15
2017-08-01T12:15:26.546Z,33.28
2017-08-01T12:16:28.445Z,33.23
2017-08-01T12:17:42.604Z,33.21
2017-08-01T12:18:44.505Z,33.21
2017-08-01T12:19:46.385Z,33.32
2017-08-01T12:20:48.264Z,33.26
2017-08-01T12:21:50.122Z,33.19
2017-08-01T12:22:51.968Z,33.22
2017-08-01T12:23:53.874Z,33.21
2017-08-01T12:24:55.756Z,33.18
2017-08-01T12:25:57.649Z,33.19
2017-08-01T12:27:11.855Z,33.34
2017-08-01T12:28:13.742Z,33.35
2017-08-01T12:29:15.616Z,33.41
2017-08-01T12:30:17.502Z,33.53
2017-08-01T12:31:19.481Z,33.49
2017-08-01T12:32:21.268Z,33.54
2017-08-01T12:33:23.174Z,33.60
2017-08-01T12:34:25.081Z,33.68
2017-08-01T12:35:26.981Z,33.68
2017-08-01T12:36:41.158Z,33.68
2017-08-01T12:37:43.033Z,33.66
2017-08-01T12:38:44.916Z,33.72
2017-08-01T12:39:46.824Z,33.76
2017-08-01T12:40:48.712Z,33.86
2017-08-01T12:41:50.605Z,33.82
2017-08-01T12:42:52.504Z,33.84
2017-08-01T12:43:54.390Z,33.91
2017-08-01T12:44:56.290Z,33.87
2017-08-01T12:46:10.457Z,33.90
2017-08-01T12:47:12.334Z,33.88
2017-08-01T12:48:14.219Z,33.86
2017-08-01T12:49:16.184Z,33.88
2017-08-01T12:50:17.993Z,33.94
2017-08-01T12:51:19.819Z,33.97
2017-08-01T12:52:21.737Z,33.95
2017-08-01T12:53:23.650Z,33.87
2017-08-01T12:54:25.528Z,33.97
2017-08-01T12:55:39.715Z,33.93
2017-08-01T12:56:41.623Z,34.08
2017-08-01T12:57:43.527Z,33.88
2017-08-01T12:58:45.647Z,33.95
2017-08-01T12:59:47.505Z,33.95
2017-08-01T13:00:49.356Z,33.94
2017-08-01T13:01:51.200Z,33.95
2017-08-01T13:02:53.469Z,34.03
2017-08-01T13:03:55.273Z,34.03
2017-08-01T13:05:09.594Z,34.08
2017-08-01T13:06:11.521Z,34.08
2017-08-01T13:07:13.509Z,34.13
2017-08-01T13:08:15.466Z,34.17
2017-08-01T13:09:17.347Z,34.19
2017-08-01T13:10:19.198Z,34.15
2017-08-01T13:11:21.118Z,34.13
2017-08-01T13:12:23.070Z,34.22
2017-08-01T13:13:24.994Z,34.25
2017-08-01T13:14:39.220Z,34.19
2017-08-01T13:15:41.138Z,34.24
2017-08-01T13:16:43.105Z,34.25
2017-08-01T13:17:45.043Z,34.21
2017-08-01T13:18:46.923Z,34.30
2017-08-01T13:19:48.806Z,34.24
2017-08-01T13:20:50.686Z,34.25
2017-08-01T13:21:52.705Z,34.30
2017-08-01T13:22:54.653Z,34.32
2017-08-01T13:24:08.903Z,34.39
2017-08-01T13:25:10.805Z,34.46
2017-08-01T13:26:12.710Z,34.42
2017-08-01T13:27:14.733Z,34.49
2017-08-01T13:28:16.651Z,34.46
2017-08-01T13:29:18.483Z,34.54
2017-08-01T13:30:20.400Z,34.53
2017-08-01T13:31:22.477Z,34.65
2017-08-01T13:32:24.347Z,34.69
2017-08-01T13:33:38.523Z,34.78
2017-08-01T13:34:40.405Z,34.78